<?xml version="1.0" encoding="utf-8"?>
<gpx xmlns:xsi="http://www.w3.org/2001/XMLSchema-instance" xmlns:xsd="http://www.w3.org/2001/XMLSchema" version="1.1" creator="Shapelink.com" xmlns="http://www.topografix.com/GPX/1/1" xmlns:gpxtpx="http://www.garmin.com/xmlschemas/TrackPointExtension/v1">
  <metadata>
    <name>Längdskidåkning - Klassisk 10.21 km, 2011-02-01</name>
    <desc></desc>
    <author><name>Alexander Engvall</name></author> 
    <time>2011-02-01T19:35:57Z</time>
  </metadata>
  <trk>
    <name>Längdskidåkning - Klassisk 10.21 km, 2011-02-01</name>
    <trkseg>
      <trkpt lat="59.592612" lon="17.5170743">
        <ele>45.7999</ele>
        <time>2011-02-01T19:35:57Z</time>
      </trkpt>
      <trkpt lat="59.5926633" lon="17.5166628">
        <ele>44.358</ele>
        <time>2011-02-01T19:36:01Z</time>
      </trkpt>
      <trkpt lat="59.5927627" lon="17.5162251">
        <ele>41.9547</ele>
        <time>2011-02-01T19:36:05Z</time>
      </trkpt>
      <trkpt lat="59.5928302" lon="17.5160266">
        <ele>40.5128</ele>
        <time>2011-02-01T19:36:07Z</time>
      </trkpt>
      <trkpt lat="59.5929074" lon="17.5158392">
        <ele>39.5513</ele>
        <time>2011-02-01T19:36:09Z</time>
      </trkpt>
      <trkpt lat="59.5930083" lon="17.5155295">
        <ele>37.1481</ele>
        <time>2011-02-01T19:36:12Z</time>
      </trkpt>
      <trkpt lat="59.5932528" lon="17.514934">
        <ele>34.2642</ele>
        <time>2011-02-01T19:36:18Z</time>
      </trkpt>
      <trkpt lat="59.5934315" lon="17.5147126">
        <ele>32.3416</ele>
        <time>2011-02-01T19:36:22Z</time>
      </trkpt>
      <trkpt lat="59.5935833" lon="17.5145794">
        <ele>32.3416</ele>
        <time>2011-02-01T19:36:26Z</time>
      </trkpt>
      <trkpt lat="59.5937022" lon="17.5145341">
        <ele>32.3416</ele>
        <time>2011-02-01T19:36:29Z</time>
      </trkpt>
      <trkpt lat="59.5938408" lon="17.514607">
        <ele>33.3029</ele>
        <time>2011-02-01T19:36:33Z</time>
      </trkpt>
      <trkpt lat="59.5939724" lon="17.514812">
        <ele>34.2642</ele>
        <time>2011-02-01T19:36:38Z</time>
      </trkpt>
      <trkpt lat="59.5940252" lon="17.5149302">
        <ele>36.1868</ele>
        <time>2011-02-01T19:36:41Z</time>
      </trkpt>
      <trkpt lat="59.5941758" lon="17.5151885">
        <ele>39.0707</ele>
        <time>2011-02-01T19:36:47Z</time>
      </trkpt>
      <trkpt lat="59.5943552" lon="17.5152708">
        <ele>40.0321</ele>
        <time>2011-02-01T19:36:52Z</time>
      </trkpt>
      <trkpt lat="59.5944721" lon="17.5153704">
        <ele>42.916</ele>
        <time>2011-02-01T19:36:56Z</time>
      </trkpt>
      <trkpt lat="59.5945878" lon="17.5154738">
        <ele>44.358</ele>
        <time>2011-02-01T19:37:00Z</time>
      </trkpt>
      <trkpt lat="59.5947203" lon="17.515546">
        <ele>46.7612</ele>
        <time>2011-02-01T19:37:04Z</time>
      </trkpt>
      <trkpt lat="59.5949056" lon="17.5156641">
        <ele>47.7225</ele>
        <time>2011-02-01T19:37:08Z</time>
      </trkpt>
      <trkpt lat="59.5950311" lon="17.5157219">
        <ele>49.1646</ele>
        <time>2011-02-01T19:37:12Z</time>
      </trkpt>
      <trkpt lat="59.5951974" lon="17.5157175">
        <ele>52.0486</ele>
        <time>2011-02-01T19:37:17Z</time>
      </trkpt>
      <trkpt lat="59.5953322" lon="17.5155833">
        <ele>53.0098</ele>
        <time>2011-02-01T19:37:22Z</time>
      </trkpt>
      <trkpt lat="59.5954491" lon="17.5153453">
        <ele>51.0872</ele>
        <time>2011-02-01T19:37:27Z</time>
      </trkpt>
      <trkpt lat="59.5955398" lon="17.5151192">
        <ele>51.0872</ele>
        <time>2011-02-01T19:37:31Z</time>
      </trkpt>
      <trkpt lat="59.5956257" lon="17.5147384">
        <ele>50.6066</ele>
        <time>2011-02-01T19:37:36Z</time>
      </trkpt>
      <trkpt lat="59.595675" lon="17.5145846">
        <ele>50.126</ele>
        <time>2011-02-01T19:37:38Z</time>
      </trkpt>
      <trkpt lat="59.5957264" lon="17.514367">
        <ele>49.1646</ele>
        <time>2011-02-01T19:37:41Z</time>
      </trkpt>
      <trkpt lat="59.5957408" lon="17.5142117">
        <ele>47.7225</ele>
        <time>2011-02-01T19:37:43Z</time>
      </trkpt>
      <trkpt lat="59.5957387" lon="17.5137475">
        <ele>43.3966</ele>
        <time>2011-02-01T19:37:48Z</time>
      </trkpt>
      <trkpt lat="59.595745" lon="17.5134916">
        <ele>42.4354</ele>
        <time>2011-02-01T19:37:50Z</time>
      </trkpt>
      <trkpt lat="59.5958335" lon="17.5129938">
        <ele>39.5513</ele>
        <time>2011-02-01T19:37:54Z</time>
      </trkpt>
      <trkpt lat="59.5959976" lon="17.512809">
        <ele>36.6675</ele>
        <time>2011-02-01T19:37:57Z</time>
      </trkpt>
      <trkpt lat="59.5963562" lon="17.5126056">
        <ele>33.3029</ele>
        <time>2011-02-01T19:38:03Z</time>
      </trkpt>
      <trkpt lat="59.5965064" lon="17.5125627">
        <ele>31.8607</ele>
        <time>2011-02-01T19:38:06Z</time>
      </trkpt>
      <trkpt lat="59.5967429" lon="17.5125012">
        <ele>28.4962</ele>
        <time>2011-02-01T19:38:12Z</time>
      </trkpt>
      <trkpt lat="59.5968665" lon="17.5124733">
        <ele>28.4962</ele>
        <time>2011-02-01T19:38:15Z</time>
      </trkpt>
      <trkpt lat="59.5970244" lon="17.5124333">
        <ele>28.9769</ele>
        <time>2011-02-01T19:38:19Z</time>
      </trkpt>
      <trkpt lat="59.5972237" lon="17.5123286">
        <ele>31.3801</ele>
        <time>2011-02-01T19:38:25Z</time>
      </trkpt>
      <trkpt lat="59.5973729" lon="17.5123036">
        <ele>35.7061</ele>
        <time>2011-02-01T19:38:29Z</time>
      </trkpt>
      <trkpt lat="59.5975435" lon="17.5122212">
        <ele>37.1481</ele>
        <time>2011-02-01T19:38:34Z</time>
      </trkpt>
      <trkpt lat="59.5977482" lon="17.5120531">
        <ele>37.6287</ele>
        <time>2011-02-01T19:38:39Z</time>
      </trkpt>
      <trkpt lat="59.5979563" lon="17.5118488">
        <ele>37.6287</ele>
        <time>2011-02-01T19:38:44Z</time>
      </trkpt>
      <trkpt lat="59.5981165" lon="17.5116681">
        <ele>38.5901</ele>
        <time>2011-02-01T19:38:48Z</time>
      </trkpt>
      <trkpt lat="59.5983644" lon="17.5112964">
        <ele>36.6675</ele>
        <time>2011-02-01T19:38:55Z</time>
      </trkpt>
      <trkpt lat="59.5985629" lon="17.5110931">
        <ele>34.7449</ele>
        <time>2011-02-01T19:38:59Z</time>
      </trkpt>
      <trkpt lat="59.5987731" lon="17.5109617">
        <ele>33.3029</ele>
        <time>2011-02-01T19:39:04Z</time>
      </trkpt>
      <trkpt lat="59.5989632" lon="17.5108814">
        <ele>33.3029</ele>
        <time>2011-02-01T19:39:09Z</time>
      </trkpt>
      <trkpt lat="59.5990501" lon="17.510871">
        <ele>32.8223</ele>
        <time>2011-02-01T19:39:11Z</time>
      </trkpt>
      <trkpt lat="59.5991508" lon="17.510882">
        <ele>32.3416</ele>
        <time>2011-02-01T19:39:13Z</time>
      </trkpt>
      <trkpt lat="59.5993452" lon="17.511036">
        <ele>30.8995</ele>
        <time>2011-02-01T19:39:17Z</time>
      </trkpt>
      <trkpt lat="59.5994243" lon="17.5111393">
        <ele>31.3801</ele>
        <time>2011-02-01T19:39:19Z</time>
      </trkpt>
      <trkpt lat="59.5994757" lon="17.5112498">
        <ele>31.8607</ele>
        <time>2011-02-01T19:39:21Z</time>
      </trkpt>
      <trkpt lat="59.5995356" lon="17.5116008">
        <ele>35.7061</ele>
        <time>2011-02-01T19:39:26Z</time>
      </trkpt>
      <trkpt lat="59.5995195" lon="17.5118635">
        <ele>36.1868</ele>
        <time>2011-02-01T19:39:30Z</time>
      </trkpt>
      <trkpt lat="59.5994524" lon="17.5121433">
        <ele>32.8223</ele>
        <time>2011-02-01T19:39:34Z</time>
      </trkpt>
      <trkpt lat="59.599339" lon="17.5123599">
        <ele>30.4188</ele>
        <time>2011-02-01T19:39:38Z</time>
      </trkpt>
      <trkpt lat="59.599259" lon="17.5124928">
        <ele>29.4575</ele>
        <time>2011-02-01T19:39:41Z</time>
      </trkpt>
      <trkpt lat="59.5991912" lon="17.5127864">
        <ele>31.3801</ele>
        <time>2011-02-01T19:39:46Z</time>
      </trkpt>
      <trkpt lat="59.5991964" lon="17.5130949">
        <ele>29.4575</ele>
        <time>2011-02-01T19:39:50Z</time>
      </trkpt>
      <trkpt lat="59.5991662" lon="17.5133834">
        <ele>28.9769</ele>
        <time>2011-02-01T19:39:54Z</time>
      </trkpt>
      <trkpt lat="59.5990859" lon="17.5135621">
        <ele>30.4188</ele>
        <time>2011-02-01T19:39:58Z</time>
      </trkpt>
      <trkpt lat="59.5989344" lon="17.5138095">
        <ele>27.5349</ele>
        <time>2011-02-01T19:40:04Z</time>
      </trkpt>
      <trkpt lat="59.598844" lon="17.5138942">
        <ele>26.5736</ele>
        <time>2011-02-01T19:40:07Z</time>
      </trkpt>
      <trkpt lat="59.5987212" lon="17.5139281">
        <ele>27.5349</ele>
        <time>2011-02-01T19:40:11Z</time>
      </trkpt>
      <trkpt lat="59.5985717" lon="17.5139505">
        <ele>28.4962</ele>
        <time>2011-02-01T19:40:16Z</time>
      </trkpt>
      <trkpt lat="59.5984301" lon="17.513935">
        <ele>29.9381</ele>
        <time>2011-02-01T19:40:20Z</time>
      </trkpt>
      <trkpt lat="59.598249" lon="17.5139386">
        <ele>30.8995</ele>
        <time>2011-02-01T19:40:26Z</time>
      </trkpt>
      <trkpt lat="59.5981531" lon="17.5139682">
        <ele>30.8995</ele>
        <time>2011-02-01T19:40:30Z</time>
      </trkpt>
      <trkpt lat="59.5981246" lon="17.513959">
        <ele>31.8607</ele>
        <time>2011-02-01T19:40:31Z</time>
      </trkpt>
      <trkpt lat="59.5979733" lon="17.5140855">
        <ele>32.3416</ele>
        <time>2011-02-01T19:40:37Z</time>
      </trkpt>
      <trkpt lat="59.5979269" lon="17.5141624">
        <ele>32.8223</ele>
        <time>2011-02-01T19:40:39Z</time>
      </trkpt>
      <trkpt lat="59.5977875" lon="17.5144339">
        <ele>32.3416</ele>
        <time>2011-02-01T19:40:46Z</time>
      </trkpt>
      <trkpt lat="59.5976471" lon="17.5145946">
        <ele>33.7834</ele>
        <time>2011-02-01T19:40:50Z</time>
      </trkpt>
      <trkpt lat="59.5974438" lon="17.5147126">
        <ele>32.3416</ele>
        <time>2011-02-01T19:40:55Z</time>
      </trkpt>
      <trkpt lat="59.5972796" lon="17.5147206">
        <ele>31.8607</ele>
        <time>2011-02-01T19:40:59Z</time>
      </trkpt>
      <trkpt lat="59.5972388" lon="17.514729">
        <ele>31.3801</ele>
        <time>2011-02-01T19:41:00Z</time>
      </trkpt>
      <trkpt lat="59.5970416" lon="17.5148245">
        <ele>32.8223</ele>
        <time>2011-02-01T19:41:06Z</time>
      </trkpt>
      <trkpt lat="59.5968866" lon="17.5149026">
        <ele>31.8607</ele>
        <time>2011-02-01T19:41:11Z</time>
      </trkpt>
      <trkpt lat="59.5967141" lon="17.5150886">
        <ele>33.7834</ele>
        <time>2011-02-01T19:41:17Z</time>
      </trkpt>
      <trkpt lat="59.5965629" lon="17.5152467">
        <ele>36.1868</ele>
        <time>2011-02-01T19:41:22Z</time>
      </trkpt>
      <trkpt lat="59.5964119" lon="17.5154056">
        <ele>38.5901</ele>
        <time>2011-02-01T19:41:27Z</time>
      </trkpt>
      <trkpt lat="59.5963002" lon="17.5155258">
        <ele>37.6287</ele>
        <time>2011-02-01T19:41:31Z</time>
      </trkpt>
      <trkpt lat="59.5961821" lon="17.5156687">
        <ele>37.1481</ele>
        <time>2011-02-01T19:41:35Z</time>
      </trkpt>
      <trkpt lat="59.5960548" lon="17.5158179">
        <ele>37.1481</ele>
        <time>2011-02-01T19:41:40Z</time>
      </trkpt>
      <trkpt lat="59.5959439" lon="17.5159459">
        <ele>35.7061</ele>
        <time>2011-02-01T19:41:44Z</time>
      </trkpt>
      <trkpt lat="59.5958435" lon="17.5160921">
        <ele>35.2255</ele>
        <time>2011-02-01T19:41:48Z</time>
      </trkpt>
      <trkpt lat="59.5957795" lon="17.5163121">
        <ele>37.1481</ele>
        <time>2011-02-01T19:41:53Z</time>
      </trkpt>
      <trkpt lat="59.5957352" lon="17.5165437">
        <ele>39.0707</ele>
        <time>2011-02-01T19:41:57Z</time>
      </trkpt>
      <trkpt lat="59.5957102" lon="17.5167685">
        <ele>40.0321</ele>
        <time>2011-02-01T19:42:01Z</time>
      </trkpt>
      <trkpt lat="59.5956634" lon="17.5170624">
        <ele>41.474</ele>
        <time>2011-02-01T19:42:05Z</time>
      </trkpt>
      <trkpt lat="59.5956116" lon="17.517242">
        <ele>40.9934</ele>
        <time>2011-02-01T19:42:07Z</time>
      </trkpt>
      <trkpt lat="59.5953016" lon="17.5174839">
        <ele>40.5128</ele>
        <time>2011-02-01T19:42:11Z</time>
      </trkpt>
      <trkpt lat="59.5952257" lon="17.5175228">
        <ele>40.9934</ele>
        <time>2011-02-01T19:42:12Z</time>
      </trkpt>
      <trkpt lat="59.5950223" lon="17.5175948">
        <ele>40.5128</ele>
        <time>2011-02-01T19:42:15Z</time>
      </trkpt>
      <trkpt lat="59.5946745" lon="17.517707">
        <ele>39.0707</ele>
        <time>2011-02-01T19:42:21Z</time>
      </trkpt>
      <trkpt lat="59.594613" lon="17.5177332">
        <ele>39.0707</ele>
        <time>2011-02-01T19:42:22Z</time>
      </trkpt>
      <trkpt lat="59.5943514" lon="17.5178693">
        <ele>38.1094</ele>
        <time>2011-02-01T19:42:27Z</time>
      </trkpt>
      <trkpt lat="59.5942576" lon="17.5179188">
        <ele>37.1481</ele>
        <time>2011-02-01T19:42:29Z</time>
      </trkpt>
      <trkpt lat="59.5940355" lon="17.5181243">
        <ele>35.7061</ele>
        <time>2011-02-01T19:42:35Z</time>
      </trkpt>
      <trkpt lat="59.5937763" lon="17.5182652">
        <ele>32.8223</ele>
        <time>2011-02-01T19:42:42Z</time>
      </trkpt>
      <trkpt lat="59.5935931" lon="17.5183312">
        <ele>31.3801</ele>
        <time>2011-02-01T19:42:46Z</time>
      </trkpt>
      <trkpt lat="59.5933605" lon="17.5185775">
        <ele>31.8607</ele>
        <time>2011-02-01T19:42:52Z</time>
      </trkpt>
      <trkpt lat="59.5932062" lon="17.5187173">
        <ele>31.8607</ele>
        <time>2011-02-01T19:42:56Z</time>
      </trkpt>
      <trkpt lat="59.5930865" lon="17.5187845">
        <ele>32.3416</ele>
        <time>2011-02-01T19:42:59Z</time>
      </trkpt>
      <trkpt lat="59.5929933" lon="17.5188111">
        <ele>32.3416</ele>
        <time>2011-02-01T19:43:01Z</time>
      </trkpt>
      <trkpt lat="59.5928449" lon="17.5186513">
        <ele>30.4188</ele>
        <time>2011-02-01T19:43:05Z</time>
      </trkpt>
      <trkpt lat="59.5926762" lon="17.5183531">
        <ele>28.4962</ele>
        <time>2011-02-01T19:43:10Z</time>
      </trkpt>
      <trkpt lat="59.5926114" lon="17.5182529">
        <ele>27.5349</ele>
        <time>2011-02-01T19:43:12Z</time>
      </trkpt>
      <trkpt lat="59.5925356" lon="17.5180914">
        <ele>27.0543</ele>
        <time>2011-02-01T19:43:15Z</time>
      </trkpt>
      <trkpt lat="59.5925368" lon="17.5179355">
        <ele>30.4188</ele>
        <time>2011-02-01T19:43:17Z</time>
      </trkpt>
      <trkpt lat="59.5925491" lon="17.5176637">
        <ele>30.8995</ele>
        <time>2011-02-01T19:43:21Z</time>
      </trkpt>
      <trkpt lat="59.592601" lon="17.5171983">
        <ele>33.7834</ele>
        <time>2011-02-01T19:43:28Z</time>
      </trkpt>
      <trkpt lat="59.5926364" lon="17.5168328">
        <ele>33.3029</ele>
        <time>2011-02-01T19:43:32Z</time>
      </trkpt>
      <trkpt lat="59.5927026" lon="17.5164292">
        <ele>33.7834</ele>
        <time>2011-02-01T19:43:36Z</time>
      </trkpt>
      <trkpt lat="59.5928188" lon="17.5160616">
        <ele>33.3029</ele>
        <time>2011-02-01T19:43:40Z</time>
      </trkpt>
      <trkpt lat="59.5930673" lon="17.5153751">
        <ele>30.8995</ele>
        <time>2011-02-01T19:43:47Z</time>
      </trkpt>
      <trkpt lat="59.5932132" lon="17.5149866">
        <ele>32.3416</ele>
        <time>2011-02-01T19:43:51Z</time>
      </trkpt>
      <trkpt lat="59.5933793" lon="17.5147307">
        <ele>31.8607</ele>
        <time>2011-02-01T19:43:55Z</time>
      </trkpt>
      <trkpt lat="59.593602" lon="17.5145727">
        <ele>32.3416</ele>
        <time>2011-02-01T19:44:00Z</time>
      </trkpt>
      <trkpt lat="59.5937123" lon="17.5145217">
        <ele>33.7834</ele>
        <time>2011-02-01T19:44:03Z</time>
      </trkpt>
      <trkpt lat="59.5939039" lon="17.5146067">
        <ele>36.6675</ele>
        <time>2011-02-01T19:44:09Z</time>
      </trkpt>
      <trkpt lat="59.5939231" lon="17.5146381">
        <ele>36.6675</ele>
        <time>2011-02-01T19:44:10Z</time>
      </trkpt>
      <trkpt lat="59.5940494" lon="17.5149388">
        <ele>40.5128</ele>
        <time>2011-02-01T19:44:17Z</time>
      </trkpt>
      <trkpt lat="59.5941487" lon="17.5151517">
        <ele>40.5128</ele>
        <time>2011-02-01T19:44:22Z</time>
      </trkpt>
      <trkpt lat="59.5942606" lon="17.5152571">
        <ele>39.0707</ele>
        <time>2011-02-01T19:44:26Z</time>
      </trkpt>
      <trkpt lat="59.5943669" lon="17.5153642">
        <ele>37.1481</ele>
        <time>2011-02-01T19:44:31Z</time>
      </trkpt>
      <trkpt lat="59.5944653" lon="17.5154809">
        <ele>35.2255</ele>
        <time>2011-02-01T19:44:36Z</time>
      </trkpt>
      <trkpt lat="59.5946235" lon="17.5155244">
        <ele>44.358</ele>
        <time>2011-02-01T19:44:40Z</time>
      </trkpt>
      <trkpt lat="59.5947825" lon="17.515675">
        <ele>45.7999</ele>
        <time>2011-02-01T19:44:45Z</time>
      </trkpt>
      <trkpt lat="59.5949896" lon="17.5157527">
        <ele>48.2034</ele>
        <time>2011-02-01T19:44:51Z</time>
      </trkpt>
      <trkpt lat="59.5951498" lon="17.5157556">
        <ele>46.7612</ele>
        <time>2011-02-01T19:44:56Z</time>
      </trkpt>
      <trkpt lat="59.5952488" lon="17.5156732">
        <ele>45.7999</ele>
        <time>2011-02-01T19:45:00Z</time>
      </trkpt>
      <trkpt lat="59.5953071" lon="17.5156137">
        <ele>45.7999</ele>
        <time>2011-02-01T19:45:02Z</time>
      </trkpt>
      <trkpt lat="59.5954533" lon="17.5153352">
        <ele>45.3192</ele>
        <time>2011-02-01T19:45:09Z</time>
      </trkpt>
      <trkpt lat="59.5955215" lon="17.5151248">
        <ele>45.7999</ele>
        <time>2011-02-01T19:45:13Z</time>
      </trkpt>
      <trkpt lat="59.5955922" lon="17.5148279">
        <ele>47.7225</ele>
        <time>2011-02-01T19:45:17Z</time>
      </trkpt>
      <trkpt lat="59.5956491" lon="17.5145359">
        <ele>48.684</ele>
        <time>2011-02-01T19:45:21Z</time>
      </trkpt>
      <trkpt lat="59.595686" lon="17.5143927">
        <ele>49.1646</ele>
        <time>2011-02-01T19:45:23Z</time>
      </trkpt>
      <trkpt lat="59.5957112" lon="17.5140754">
        <ele>48.684</ele>
        <time>2011-02-01T19:45:27Z</time>
      </trkpt>
      <trkpt lat="59.5957201" lon="17.5135196">
        <ele>43.3966</ele>
        <time>2011-02-01T19:45:32Z</time>
      </trkpt>
      <trkpt lat="59.5957247" lon="17.5133837">
        <ele>42.4354</ele>
        <time>2011-02-01T19:45:33Z</time>
      </trkpt>
      <trkpt lat="59.5958599" lon="17.5129254">
        <ele>38.5901</ele>
        <time>2011-02-01T19:45:37Z</time>
      </trkpt>
      <trkpt lat="59.5959695" lon="17.5128182">
        <ele>37.1481</ele>
        <time>2011-02-01T19:45:39Z</time>
      </trkpt>
      <trkpt lat="59.5960811" lon="17.5127384">
        <ele>35.7061</ele>
        <time>2011-02-01T19:45:41Z</time>
      </trkpt>
      <trkpt lat="59.5962329" lon="17.5126565">
        <ele>35.7061</ele>
        <time>2011-02-01T19:45:44Z</time>
      </trkpt>
      <trkpt lat="59.5963862" lon="17.5126083">
        <ele>35.7061</ele>
        <time>2011-02-01T19:45:48Z</time>
      </trkpt>
      <trkpt lat="59.5965768" lon="17.5125761">
        <ele>36.1868</ele>
        <time>2011-02-01T19:45:52Z</time>
      </trkpt>
      <trkpt lat="59.5968553" lon="17.5124955">
        <ele>36.6675</ele>
        <time>2011-02-01T19:45:58Z</time>
      </trkpt>
      <trkpt lat="59.5970291" lon="17.5123929">
        <ele>36.6675</ele>
        <time>2011-02-01T19:46:02Z</time>
      </trkpt>
      <trkpt lat="59.597113" lon="17.5123547">
        <ele>37.6287</ele>
        <time>2011-02-01T19:46:04Z</time>
      </trkpt>
      <trkpt lat="59.5972927" lon="17.5122562">
        <ele>38.5901</ele>
        <time>2011-02-01T19:46:09Z</time>
      </trkpt>
      <trkpt lat="59.5973267" lon="17.5122394">
        <ele>39.0707</ele>
        <time>2011-02-01T19:46:10Z</time>
      </trkpt>
      <trkpt lat="59.5975057" lon="17.5121845">
        <ele>38.1094</ele>
        <time>2011-02-01T19:46:15Z</time>
      </trkpt>
      <trkpt lat="59.5976487" lon="17.5121179">
        <ele>36.6675</ele>
        <time>2011-02-01T19:46:19Z</time>
      </trkpt>
      <trkpt lat="59.5978107" lon="17.5119987">
        <ele>35.7061</ele>
        <time>2011-02-01T19:46:23Z</time>
      </trkpt>
      <trkpt lat="59.5978821" lon="17.5118982">
        <ele>35.2255</ele>
        <time>2011-02-01T19:46:25Z</time>
      </trkpt>
      <trkpt lat="59.5979628" lon="17.5118042">
        <ele>35.2255</ele>
        <time>2011-02-01T19:46:27Z</time>
      </trkpt>
      <trkpt lat="59.5981571" lon="17.5115827">
        <ele>36.1868</ele>
        <time>2011-02-01T19:46:32Z</time>
      </trkpt>
      <trkpt lat="59.5983117" lon="17.5113683">
        <ele>36.1868</ele>
        <time>2011-02-01T19:46:36Z</time>
      </trkpt>
      <trkpt lat="59.5985613" lon="17.5111163">
        <ele>34.7449</ele>
        <time>2011-02-01T19:46:42Z</time>
      </trkpt>
      <trkpt lat="59.598642" lon="17.5110725">
        <ele>33.7834</ele>
        <time>2011-02-01T19:46:44Z</time>
      </trkpt>
      <trkpt lat="59.5987746" lon="17.5110181">
        <ele>32.3416</ele>
        <time>2011-02-01T19:46:47Z</time>
      </trkpt>
      <trkpt lat="59.5989207" lon="17.5109575">
        <ele>30.4188</ele>
        <time>2011-02-01T19:46:51Z</time>
      </trkpt>
      <trkpt lat="59.5989978" lon="17.5109417">
        <ele>29.9381</ele>
        <time>2011-02-01T19:46:53Z</time>
      </trkpt>
      <trkpt lat="59.5990753" lon="17.5109056">
        <ele>27.5349</ele>
        <time>2011-02-01T19:46:55Z</time>
      </trkpt>
      <trkpt lat="59.5993258" lon="17.511004">
        <ele>23.6896</ele>
        <time>2011-02-01T19:47:01Z</time>
      </trkpt>
      <trkpt lat="59.599445" lon="17.5112103">
        <ele>25.1317</ele>
        <time>2011-02-01T19:47:05Z</time>
      </trkpt>
      <trkpt lat="59.5994709" lon="17.5112645">
        <ele>27.0543</ele>
        <time>2011-02-01T19:47:06Z</time>
      </trkpt>
      <trkpt lat="59.5994941" lon="17.5113719">
        <ele>28.9769</ele>
        <time>2011-02-01T19:47:08Z</time>
      </trkpt>
      <trkpt lat="59.5995039" lon="17.5117543">
        <ele>32.8223</ele>
        <time>2011-02-01T19:47:13Z</time>
      </trkpt>
      <trkpt lat="59.599473" lon="17.5120236">
        <ele>33.3029</ele>
        <time>2011-02-01T19:47:17Z</time>
      </trkpt>
      <trkpt lat="59.5993513" lon="17.5122903">
        <ele>31.3801</ele>
        <time>2011-02-01T19:47:22Z</time>
      </trkpt>
      <trkpt lat="59.599227" lon="17.5124391">
        <ele>28.0155</ele>
        <time>2011-02-01T19:47:27Z</time>
      </trkpt>
      <trkpt lat="59.5991736" lon="17.5126442">
        <ele>27.5349</ele>
        <time>2011-02-01T19:47:31Z</time>
      </trkpt>
      <trkpt lat="59.5991851" lon="17.5129042">
        <ele>30.4188</ele>
        <time>2011-02-01T19:47:35Z</time>
      </trkpt>
      <trkpt lat="59.5991672" lon="17.5133118">
        <ele>29.9381</ele>
        <time>2011-02-01T19:47:40Z</time>
      </trkpt>
      <trkpt lat="59.599082" lon="17.5135102">
        <ele>27.0543</ele>
        <time>2011-02-01T19:47:44Z</time>
      </trkpt>
      <trkpt lat="59.5990063" lon="17.5136921">
        <ele>24.1703</ele>
        <time>2011-02-01T19:47:48Z</time>
      </trkpt>
      <trkpt lat="59.5988311" lon="17.5138506">
        <ele>22.2476</ele>
        <time>2011-02-01T19:47:54Z</time>
      </trkpt>
      <trkpt lat="59.5987564" lon="17.5138962">
        <ele>22.7283</ele>
        <time>2011-02-01T19:47:57Z</time>
      </trkpt>
      <trkpt lat="59.5986238" lon="17.5139517">
        <ele>20.8057</ele>
        <time>2011-02-01T19:48:02Z</time>
      </trkpt>
      <trkpt lat="59.5986022" lon="17.5139651">
        <ele>20.8057</ele>
        <time>2011-02-01T19:48:03Z</time>
      </trkpt>
      <trkpt lat="59.5984019" lon="17.5139563">
        <ele>21.767</ele>
        <time>2011-02-01T19:48:10Z</time>
      </trkpt>
      <trkpt lat="59.5982747" lon="17.5139437">
        <ele>22.7283</ele>
        <time>2011-02-01T19:48:15Z</time>
      </trkpt>
      <trkpt lat="59.5981298" lon="17.5139811">
        <ele>24.1703</ele>
        <time>2011-02-01T19:48:20Z</time>
      </trkpt>
      <trkpt lat="59.5980032" lon="17.5140479">
        <ele>26.0929</ele>
        <time>2011-02-01T19:48:25Z</time>
      </trkpt>
      <trkpt lat="59.5979214" lon="17.5140821">
        <ele>27.0543</ele>
        <time>2011-02-01T19:48:28Z</time>
      </trkpt>
      <trkpt lat="59.59782" lon="17.5142599">
        <ele>28.9769</ele>
        <time>2011-02-01T19:48:33Z</time>
      </trkpt>
      <trkpt lat="59.5976845" lon="17.514483">
        <ele>29.9381</ele>
        <time>2011-02-01T19:48:38Z</time>
      </trkpt>
      <trkpt lat="59.5975279" lon="17.5145948">
        <ele>32.3416</ele>
        <time>2011-02-01T19:48:43Z</time>
      </trkpt>
      <trkpt lat="59.597403" lon="17.5146538">
        <ele>32.8223</ele>
        <time>2011-02-01T19:48:47Z</time>
      </trkpt>
      <trkpt lat="59.5972378" lon="17.5147432">
        <ele>34.7449</ele>
        <time>2011-02-01T19:48:52Z</time>
      </trkpt>
      <trkpt lat="59.5971144" lon="17.5147654">
        <ele>36.1868</ele>
        <time>2011-02-01T19:48:56Z</time>
      </trkpt>
      <trkpt lat="59.5969772" lon="17.5148367">
        <ele>37.1481</ele>
        <time>2011-02-01T19:49:01Z</time>
      </trkpt>
      <trkpt lat="59.5969447" lon="17.5148533">
        <ele>37.6287</ele>
        <time>2011-02-01T19:49:02Z</time>
      </trkpt>
      <trkpt lat="59.5968131" lon="17.5149787">
        <ele>37.1481</ele>
        <time>2011-02-01T19:49:07Z</time>
      </trkpt>
      <trkpt lat="59.5967553" lon="17.5150399">
        <ele>37.6287</ele>
        <time>2011-02-01T19:49:09Z</time>
      </trkpt>
      <trkpt lat="59.5966041" lon="17.5151964">
        <ele>38.1094</ele>
        <time>2011-02-01T19:49:15Z</time>
      </trkpt>
      <trkpt lat="59.5964576" lon="17.515341">
        <ele>38.1094</ele>
        <time>2011-02-01T19:49:21Z</time>
      </trkpt>
      <trkpt lat="59.5963435" lon="17.5155057">
        <ele>38.1094</ele>
        <time>2011-02-01T19:49:26Z</time>
      </trkpt>
      <trkpt lat="59.5962324" lon="17.5156046">
        <ele>38.1094</ele>
        <time>2011-02-01T19:49:30Z</time>
      </trkpt>
      <trkpt lat="59.5960999" lon="17.5157246">
        <ele>38.1094</ele>
        <time>2011-02-01T19:49:35Z</time>
      </trkpt>
      <trkpt lat="59.5959889" lon="17.515859">
        <ele>38.5901</ele>
        <time>2011-02-01T19:49:39Z</time>
      </trkpt>
      <trkpt lat="59.5958784" lon="17.5160424">
        <ele>38.1094</ele>
        <time>2011-02-01T19:49:43Z</time>
      </trkpt>
      <trkpt lat="59.595806" lon="17.5162225">
        <ele>38.5901</ele>
        <time>2011-02-01T19:49:47Z</time>
      </trkpt>
      <trkpt lat="59.5957939" lon="17.5162718">
        <ele>38.5901</ele>
        <time>2011-02-01T19:49:48Z</time>
      </trkpt>
      <trkpt lat="59.5957527" lon="17.5165384">
        <ele>40.5128</ele>
        <time>2011-02-01T19:49:53Z</time>
      </trkpt>
      <trkpt lat="59.5957088" lon="17.5167991">
        <ele>41.474</ele>
        <time>2011-02-01T19:49:57Z</time>
      </trkpt>
      <trkpt lat="59.595695" lon="17.5168585">
        <ele>41.474</ele>
        <time>2011-02-01T19:49:58Z</time>
      </trkpt>
      <trkpt lat="59.5956024" lon="17.5171482">
        <ele>43.3966</ele>
        <time>2011-02-01T19:50:03Z</time>
      </trkpt>
      <trkpt lat="59.5954049" lon="17.5173988">
        <ele>40.0321</ele>
        <time>2011-02-01T19:50:07Z</time>
      </trkpt>
      <trkpt lat="59.5951223" lon="17.5175181">
        <ele>37.6287</ele>
        <time>2011-02-01T19:50:11Z</time>
      </trkpt>
      <trkpt lat="59.5949711" lon="17.5175513">
        <ele>37.1481</ele>
        <time>2011-02-01T19:50:13Z</time>
      </trkpt>
      <trkpt lat="59.5947334" lon="17.5176471">
        <ele>36.6675</ele>
        <time>2011-02-01T19:50:17Z</time>
      </trkpt>
      <trkpt lat="59.5944909" lon="17.5177469">
        <ele>36.6675</ele>
        <time>2011-02-01T19:50:21Z</time>
      </trkpt>
      <trkpt lat="59.594265" lon="17.5178709">
        <ele>35.7061</ele>
        <time>2011-02-01T19:50:26Z</time>
      </trkpt>
      <trkpt lat="59.594138" lon="17.5179656">
        <ele>36.1868</ele>
        <time>2011-02-01T19:50:29Z</time>
      </trkpt>
      <trkpt lat="59.5940267" lon="17.5180242">
        <ele>36.1868</ele>
        <time>2011-02-01T19:50:32Z</time>
      </trkpt>
      <trkpt lat="59.5939671" lon="17.5180207">
        <ele>36.6675</ele>
        <time>2011-02-01T19:50:34Z</time>
      </trkpt>
      <trkpt lat="59.5937863" lon="17.5181335">
        <ele>35.2255</ele>
        <time>2011-02-01T19:50:39Z</time>
      </trkpt>
      <trkpt lat="59.5936318" lon="17.5182277">
        <ele>33.3029</ele>
        <time>2011-02-01T19:50:43Z</time>
      </trkpt>
      <trkpt lat="59.5935009" lon="17.5183253">
        <ele>33.3029</ele>
        <time>2011-02-01T19:50:46Z</time>
      </trkpt>
      <trkpt lat="59.5932803" lon="17.5186101">
        <ele>34.2642</ele>
        <time>2011-02-01T19:50:52Z</time>
      </trkpt>
      <trkpt lat="59.5932451" lon="17.5186563">
        <ele>34.2642</ele>
        <time>2011-02-01T19:50:53Z</time>
      </trkpt>
      <trkpt lat="59.5930703" lon="17.5187546">
        <ele>32.8223</ele>
        <time>2011-02-01T19:50:58Z</time>
      </trkpt>
      <trkpt lat="59.5928316" lon="17.5185159">
        <ele>30.8995</ele>
        <time>2011-02-01T19:51:04Z</time>
      </trkpt>
      <trkpt lat="59.592768" lon="17.5183793">
        <ele>29.9381</ele>
        <time>2011-02-01T19:51:06Z</time>
      </trkpt>
      <trkpt lat="59.5927328" lon="17.5183203">
        <ele>30.8995</ele>
        <time>2011-02-01T19:51:07Z</time>
      </trkpt>
      <trkpt lat="59.5926458" lon="17.5181714">
        <ele>31.8607</ele>
        <time>2011-02-01T19:51:10Z</time>
      </trkpt>
      <trkpt lat="59.5925325" lon="17.517881">
        <ele>32.3416</ele>
        <time>2011-02-01T19:51:15Z</time>
      </trkpt>
      <trkpt lat="59.5925427" lon="17.5176244">
        <ele>31.8607</ele>
        <time>2011-02-01T19:51:19Z</time>
      </trkpt>
      <trkpt lat="59.5925681" lon="17.5172735">
        <ele>34.2642</ele>
        <time>2011-02-01T19:51:24Z</time>
      </trkpt>
      <trkpt lat="59.5926001" lon="17.5168872">
        <ele>33.7834</ele>
        <time>2011-02-01T19:51:29Z</time>
      </trkpt>
      <trkpt lat="59.5926082" lon="17.5167839">
        <ele>33.3029</ele>
        <time>2011-02-01T19:51:30Z</time>
      </trkpt>
      <trkpt lat="59.5927182" lon="17.5162827">
        <ele>33.7834</ele>
        <time>2011-02-01T19:51:35Z</time>
      </trkpt>
      <trkpt lat="59.5927519" lon="17.5161956">
        <ele>33.3029</ele>
        <time>2011-02-01T19:51:36Z</time>
      </trkpt>
      <trkpt lat="59.5928832" lon="17.5158279">
        <ele>32.8223</ele>
        <time>2011-02-01T19:51:40Z</time>
      </trkpt>
      <trkpt lat="59.5929414" lon="17.5156354">
        <ele>32.8223</ele>
        <time>2011-02-01T19:51:42Z</time>
      </trkpt>
      <trkpt lat="59.5931576" lon="17.5150449">
        <ele>30.8995</ele>
        <time>2011-02-01T19:51:48Z</time>
      </trkpt>
      <trkpt lat="59.5932358" lon="17.5148601">
        <ele>30.4188</ele>
        <time>2011-02-01T19:51:50Z</time>
      </trkpt>
      <trkpt lat="59.5934363" lon="17.5146119">
        <ele>30.4188</ele>
        <time>2011-02-01T19:51:55Z</time>
      </trkpt>
      <trkpt lat="59.5935351" lon="17.5145421">
        <ele>30.8995</ele>
        <time>2011-02-01T19:51:57Z</time>
      </trkpt>
      <trkpt lat="59.5936869" lon="17.5145054">
        <ele>31.3801</ele>
        <time>2011-02-01T19:52:01Z</time>
      </trkpt>
      <trkpt lat="59.5938289" lon="17.514581">
        <ele>32.3416</ele>
        <time>2011-02-01T19:52:05Z</time>
      </trkpt>
      <trkpt lat="59.5939997" lon="17.5148908">
        <ele>36.6675</ele>
        <time>2011-02-01T19:52:12Z</time>
      </trkpt>
      <trkpt lat="59.5941097" lon="17.515092">
        <ele>40.5128</ele>
        <time>2011-02-01T19:52:16Z</time>
      </trkpt>
      <trkpt lat="59.5941988" lon="17.5152414">
        <ele>42.916</ele>
        <time>2011-02-01T19:52:20Z</time>
      </trkpt>
      <trkpt lat="59.5943112" lon="17.5153816">
        <ele>41.474</ele>
        <time>2011-02-01T19:52:25Z</time>
      </trkpt>
      <trkpt lat="59.5944219" lon="17.5154695">
        <ele>39.5513</ele>
        <time>2011-02-01T19:52:30Z</time>
      </trkpt>
      <trkpt lat="59.594554" lon="17.5155294">
        <ele>39.5513</ele>
        <time>2011-02-01T19:52:35Z</time>
      </trkpt>
      <trkpt lat="59.5947072" lon="17.5155884">
        <ele>42.4354</ele>
        <time>2011-02-01T19:52:39Z</time>
      </trkpt>
      <trkpt lat="59.594885" lon="17.5156159">
        <ele>44.358</ele>
        <time>2011-02-01T19:52:44Z</time>
      </trkpt>
      <trkpt lat="59.5950191" lon="17.5156212">
        <ele>44.358</ele>
        <time>2011-02-01T19:52:49Z</time>
      </trkpt>
      <trkpt lat="59.595201" lon="17.5156268">
        <ele>45.7999</ele>
        <time>2011-02-01T19:52:55Z</time>
      </trkpt>
      <trkpt lat="59.5952838" lon="17.5155928">
        <ele>46.7612</ele>
        <time>2011-02-01T19:52:58Z</time>
      </trkpt>
      <trkpt lat="59.5954223" lon="17.5153077">
        <ele>43.8773</ele>
        <time>2011-02-01T19:53:06Z</time>
      </trkpt>
      <trkpt lat="59.5955387" lon="17.5150326">
        <ele>44.358</ele>
        <time>2011-02-01T19:53:11Z</time>
      </trkpt>
      <trkpt lat="59.5956055" lon="17.5147784">
        <ele>43.8773</ele>
        <time>2011-02-01T19:53:15Z</time>
      </trkpt>
      <trkpt lat="59.5956708" lon="17.5144901">
        <ele>42.4354</ele>
        <time>2011-02-01T19:53:19Z</time>
      </trkpt>
      <trkpt lat="59.5957108" lon="17.5141728">
        <ele>40.0321</ele>
        <time>2011-02-01T19:53:24Z</time>
      </trkpt>
      <trkpt lat="59.5957245" lon="17.5138151">
        <ele>39.0707</ele>
        <time>2011-02-01T19:53:29Z</time>
      </trkpt>
      <trkpt lat="59.5957438" lon="17.5133382">
        <ele>37.1481</ele>
        <time>2011-02-01T19:53:33Z</time>
      </trkpt>
      <trkpt lat="59.5958779" lon="17.5128943">
        <ele>36.1868</ele>
        <time>2011-02-01T19:53:37Z</time>
      </trkpt>
      <trkpt lat="59.5959877" lon="17.5127963">
        <ele>35.7061</ele>
        <time>2011-02-01T19:53:39Z</time>
      </trkpt>
      <trkpt lat="59.5961011" lon="17.512726">
        <ele>35.7061</ele>
        <time>2011-02-01T19:53:41Z</time>
      </trkpt>
      <trkpt lat="59.5962915" lon="17.512658">
        <ele>34.2642</ele>
        <time>2011-02-01T19:53:45Z</time>
      </trkpt>
      <trkpt lat="59.5963737" lon="17.5126245">
        <ele>34.2642</ele>
        <time>2011-02-01T19:53:47Z</time>
      </trkpt>
      <trkpt lat="59.5965963" lon="17.5125821">
        <ele>33.7834</ele>
        <time>2011-02-01T19:53:52Z</time>
      </trkpt>
      <trkpt lat="59.5966992" lon="17.5125809">
        <ele>34.7449</ele>
        <time>2011-02-01T19:53:54Z</time>
      </trkpt>
      <trkpt lat="59.5968265" lon="17.5125508">
        <ele>35.7061</ele>
        <time>2011-02-01T19:53:57Z</time>
      </trkpt>
      <trkpt lat="59.5969959" lon="17.5124624">
        <ele>35.7061</ele>
        <time>2011-02-01T19:54:01Z</time>
      </trkpt>
      <trkpt lat="59.5972213" lon="17.5123556">
        <ele>38.5901</ele>
        <time>2011-02-01T19:54:07Z</time>
      </trkpt>
      <trkpt lat="59.5974151" lon="17.5121519">
        <ele>40.0321</ele>
        <time>2011-02-01T19:54:13Z</time>
      </trkpt>
      <trkpt lat="59.5976182" lon="17.5120164">
        <ele>42.4354</ele>
        <time>2011-02-01T19:54:18Z</time>
      </trkpt>
      <trkpt lat="59.5978532" lon="17.5118374">
        <ele>40.5128</ele>
        <time>2011-02-01T19:54:23Z</time>
      </trkpt>
      <trkpt lat="59.5978946" lon="17.5117874">
        <ele>39.5513</ele>
        <time>2011-02-01T19:54:24Z</time>
      </trkpt>
      <trkpt lat="59.5980967" lon="17.5116074">
        <ele>36.1868</ele>
        <time>2011-02-01T19:54:29Z</time>
      </trkpt>
      <trkpt lat="59.5981911" lon="17.5114561">
        <ele>33.7834</ele>
        <time>2011-02-01T19:54:32Z</time>
      </trkpt>
      <trkpt lat="59.5984242" lon="17.5111562">
        <ele>30.8995</ele>
        <time>2011-02-01T19:54:38Z</time>
      </trkpt>
      <trkpt lat="59.5985241" lon="17.511086">
        <ele>29.4575</ele>
        <time>2011-02-01T19:54:40Z</time>
      </trkpt>
      <trkpt lat="59.5986715" lon="17.5109887">
        <ele>27.5349</ele>
        <time>2011-02-01T19:54:43Z</time>
      </trkpt>
      <trkpt lat="59.5987592" lon="17.5109393">
        <ele>29.4575</ele>
        <time>2011-02-01T19:54:45Z</time>
      </trkpt>
      <trkpt lat="59.5990353" lon="17.5108492">
        <ele>29.4575</ele>
        <time>2011-02-01T19:54:51Z</time>
      </trkpt>
      <trkpt lat="59.5991304" lon="17.5108554">
        <ele>29.4575</ele>
        <time>2011-02-01T19:54:53Z</time>
      </trkpt>
      <trkpt lat="59.5993315" lon="17.5109433">
        <ele>28.9769</ele>
        <time>2011-02-01T19:54:57Z</time>
      </trkpt>
      <trkpt lat="59.5995081" lon="17.5112346">
        <ele>26.0929</ele>
        <time>2011-02-01T19:55:02Z</time>
      </trkpt>
      <trkpt lat="59.5995223" lon="17.5115371">
        <ele>26.0929</ele>
        <time>2011-02-01T19:55:06Z</time>
      </trkpt>
      <trkpt lat="59.5995274" lon="17.5117944">
        <ele>27.5349</ele>
        <time>2011-02-01T19:55:10Z</time>
      </trkpt>
      <trkpt lat="59.5994367" lon="17.5121101">
        <ele>25.6123</ele>
        <time>2011-02-01T19:55:15Z</time>
      </trkpt>
      <trkpt lat="59.599305" lon="17.51231">
        <ele>24.1703</ele>
        <time>2011-02-01T19:55:19Z</time>
      </trkpt>
      <trkpt lat="59.5991633" lon="17.5125217">
        <ele>23.6896</ele>
        <time>2011-02-01T19:55:24Z</time>
      </trkpt>
      <trkpt lat="59.5991478" lon="17.5125548">
        <ele>24.651</ele>
        <time>2011-02-01T19:55:25Z</time>
      </trkpt>
      <trkpt lat="59.5991589" lon="17.5128394">
        <ele>28.9769</ele>
        <time>2011-02-01T19:55:30Z</time>
      </trkpt>
      <trkpt lat="59.5991653" lon="17.5132274">
        <ele>28.0155</ele>
        <time>2011-02-01T19:55:35Z</time>
      </trkpt>
      <trkpt lat="59.5990795" lon="17.5134422">
        <ele>26.5736</ele>
        <time>2011-02-01T19:55:39Z</time>
      </trkpt>
      <trkpt lat="59.5990276" lon="17.5135821">
        <ele>25.6123</ele>
        <time>2011-02-01T19:55:42Z</time>
      </trkpt>
      <trkpt lat="59.5988779" lon="17.5138112">
        <ele>24.1703</ele>
        <time>2011-02-01T19:55:48Z</time>
      </trkpt>
      <trkpt lat="59.5987794" lon="17.5139428">
        <ele>25.6123</ele>
        <time>2011-02-01T19:55:52Z</time>
      </trkpt>
      <trkpt lat="59.5986863" lon="17.5139613">
        <ele>26.5736</ele>
        <time>2011-02-01T19:55:56Z</time>
      </trkpt>
      <trkpt lat="59.5985577" lon="17.5139281">
        <ele>28.0155</ele>
        <time>2011-02-01T19:56:01Z</time>
      </trkpt>
      <trkpt lat="59.5984183" lon="17.5138719">
        <ele>27.0543</ele>
        <time>2011-02-01T19:56:06Z</time>
      </trkpt>
      <trkpt lat="59.5983237" lon="17.513904">
        <ele>26.5736</ele>
        <time>2011-02-01T19:56:10Z</time>
      </trkpt>
      <trkpt lat="59.5982992" lon="17.5139102">
        <ele>26.0929</ele>
        <time>2011-02-01T19:56:11Z</time>
      </trkpt>
      <trkpt lat="59.5981711" lon="17.5139396">
        <ele>25.6123</ele>
        <time>2011-02-01T19:56:16Z</time>
      </trkpt>
      <trkpt lat="59.5980284" lon="17.5140163">
        <ele>27.0543</ele>
        <time>2011-02-01T19:56:22Z</time>
      </trkpt>
      <trkpt lat="59.5979231" lon="17.5140925">
        <ele>28.9769</ele>
        <time>2011-02-01T19:56:26Z</time>
      </trkpt>
      <trkpt lat="59.5978236" lon="17.5142726">
        <ele>29.9381</ele>
        <time>2011-02-01T19:56:31Z</time>
      </trkpt>
      <trkpt lat="59.597731" lon="17.5144174">
        <ele>28.9769</ele>
        <time>2011-02-01T19:56:35Z</time>
      </trkpt>
      <trkpt lat="59.5975875" lon="17.5145673">
        <ele>30.8995</ele>
        <time>2011-02-01T19:56:40Z</time>
      </trkpt>
      <trkpt lat="59.5974588" lon="17.5146341">
        <ele>31.8607</ele>
        <time>2011-02-01T19:56:44Z</time>
      </trkpt>
      <trkpt lat="59.5973547" lon="17.5146991">
        <ele>31.8607</ele>
        <time>2011-02-01T19:56:48Z</time>
      </trkpt>
      <trkpt lat="59.5972114" lon="17.5147891">
        <ele>33.3029</ele>
        <time>2011-02-01T19:56:53Z</time>
      </trkpt>
      <trkpt lat="59.5971061" lon="17.5148145">
        <ele>33.3029</ele>
        <time>2011-02-01T19:56:57Z</time>
      </trkpt>
      <trkpt lat="59.5969669" lon="17.5148766">
        <ele>34.2642</ele>
        <time>2011-02-01T19:57:02Z</time>
      </trkpt>
      <trkpt lat="59.5968602" lon="17.5149704">
        <ele>33.3029</ele>
        <time>2011-02-01T19:57:07Z</time>
      </trkpt>
      <trkpt lat="59.5967178" lon="17.5150959">
        <ele>32.3416</ele>
        <time>2011-02-01T19:57:13Z</time>
      </trkpt>
      <trkpt lat="59.5965854" lon="17.5152301">
        <ele>34.2642</ele>
        <time>2011-02-01T19:57:19Z</time>
      </trkpt>
      <trkpt lat="59.5964752" lon="17.5153652">
        <ele>35.2255</ele>
        <time>2011-02-01T19:57:24Z</time>
      </trkpt>
      <trkpt lat="59.5963539" lon="17.5154925">
        <ele>37.6287</ele>
        <time>2011-02-01T19:57:29Z</time>
      </trkpt>
      <trkpt lat="59.5962495" lon="17.5155958">
        <ele>38.1094</ele>
        <time>2011-02-01T19:57:33Z</time>
      </trkpt>
      <trkpt lat="59.5961293" lon="17.5157289">
        <ele>39.5513</ele>
        <time>2011-02-01T19:57:38Z</time>
      </trkpt>
      <trkpt lat="59.5960267" lon="17.5158294">
        <ele>40.0321</ele>
        <time>2011-02-01T19:57:42Z</time>
      </trkpt>
      <trkpt lat="59.5959262" lon="17.5159408">
        <ele>40.5128</ele>
        <time>2011-02-01T19:57:46Z</time>
      </trkpt>
      <trkpt lat="59.5958307" lon="17.5160996">
        <ele>40.9934</ele>
        <time>2011-02-01T19:57:51Z</time>
      </trkpt>
      <trkpt lat="59.5957887" lon="17.5162541">
        <ele>42.4354</ele>
        <time>2011-02-01T19:57:55Z</time>
      </trkpt>
      <trkpt lat="59.5957688" lon="17.5163425">
        <ele>44.358</ele>
        <time>2011-02-01T19:57:57Z</time>
      </trkpt>
      <trkpt lat="59.5956987" lon="17.5166456">
        <ele>45.3192</ele>
        <time>2011-02-01T19:58:03Z</time>
      </trkpt>
      <trkpt lat="59.5956561" lon="17.5168924">
        <ele>44.8386</ele>
        <time>2011-02-01T19:58:07Z</time>
      </trkpt>
      <trkpt lat="59.595551" lon="17.5171799">
        <ele>43.8773</ele>
        <time>2011-02-01T19:58:11Z</time>
      </trkpt>
      <trkpt lat="59.5955083" lon="17.5172585">
        <ele>43.8773</ele>
        <time>2011-02-01T19:58:12Z</time>
      </trkpt>
      <trkpt lat="59.5952682" lon="17.5174803">
        <ele>39.5513</ele>
        <time>2011-02-01T19:58:16Z</time>
      </trkpt>
      <trkpt lat="59.594971" lon="17.5175957">
        <ele>39.0707</ele>
        <time>2011-02-01T19:58:21Z</time>
      </trkpt>
      <trkpt lat="59.5947363" lon="17.5176434">
        <ele>37.1481</ele>
        <time>2011-02-01T19:58:25Z</time>
      </trkpt>
      <trkpt lat="59.5946364" lon="17.5176963">
        <ele>36.6675</ele>
        <time>2011-02-01T19:58:27Z</time>
      </trkpt>
      <trkpt lat="59.5944436" lon="17.5178143">
        <ele>34.2642</ele>
        <time>2011-02-01T19:58:32Z</time>
      </trkpt>
      <trkpt lat="59.5944011" lon="17.5178356">
        <ele>33.3029</ele>
        <time>2011-02-01T19:58:33Z</time>
      </trkpt>
      <trkpt lat="59.5941995" lon="17.5180024">
        <ele>30.4188</ele>
        <time>2011-02-01T19:58:38Z</time>
      </trkpt>
      <trkpt lat="59.5939878" lon="17.5181267">
        <ele>27.5349</ele>
        <time>2011-02-01T19:58:44Z</time>
      </trkpt>
      <trkpt lat="59.5938489" lon="17.5181642">
        <ele>24.651</ele>
        <time>2011-02-01T19:58:48Z</time>
      </trkpt>
      <trkpt lat="59.5936979" lon="17.5182169">
        <ele>23.6896</ele>
        <time>2011-02-01T19:58:52Z</time>
      </trkpt>
      <trkpt lat="59.5935211" lon="17.5183203">
        <ele>25.1317</ele>
        <time>2011-02-01T19:58:56Z</time>
      </trkpt>
      <trkpt lat="59.593389" lon="17.5184731">
        <ele>24.651</ele>
        <time>2011-02-01T19:59:00Z</time>
      </trkpt>
      <trkpt lat="59.593212" lon="17.5186506">
        <ele>22.7283</ele>
        <time>2011-02-01T19:59:05Z</time>
      </trkpt>
      <trkpt lat="59.5931687" lon="17.5186795">
        <ele>23.209</ele>
        <time>2011-02-01T19:59:06Z</time>
      </trkpt>
      <trkpt lat="59.5931303" lon="17.5187085">
        <ele>23.6896</ele>
        <time>2011-02-01T19:59:07Z</time>
      </trkpt>
      <trkpt lat="59.5929302" lon="17.5186865">
        <ele>24.1703</ele>
        <time>2011-02-01T19:59:12Z</time>
      </trkpt>
      <trkpt lat="59.5928715" lon="17.5186019">
        <ele>24.1703</ele>
        <time>2011-02-01T19:59:14Z</time>
      </trkpt>
      <trkpt lat="59.5928143" lon="17.5184943">
        <ele>23.6896</ele>
        <time>2011-02-01T19:59:16Z</time>
      </trkpt>
      <trkpt lat="59.5927561" lon="17.5183649">
        <ele>22.7283</ele>
        <time>2011-02-01T19:59:18Z</time>
      </trkpt>
      <trkpt lat="59.5926162" lon="17.5180787">
        <ele>22.7283</ele>
        <time>2011-02-01T19:59:23Z</time>
      </trkpt>
      <trkpt lat="59.5925797" lon="17.517773">
        <ele>23.6896</ele>
        <time>2011-02-01T19:59:28Z</time>
      </trkpt>
      <trkpt lat="59.5925843" lon="17.5175063">
        <ele>24.1703</ele>
        <time>2011-02-01T19:59:33Z</time>
      </trkpt>
      <trkpt lat="59.5926119" lon="17.5172815">
        <ele>24.651</ele>
        <time>2011-02-01T19:59:37Z</time>
      </trkpt>
      <trkpt lat="59.5926498" lon="17.5169325">
        <ele>26.0929</ele>
        <time>2011-02-01T19:59:42Z</time>
      </trkpt>
      <trkpt lat="59.5926729" lon="17.5166262">
        <ele>25.1317</ele>
        <time>2011-02-01T19:59:45Z</time>
      </trkpt>
      <trkpt lat="59.5927467" lon="17.5162272">
        <ele>25.1317</ele>
        <time>2011-02-01T19:59:49Z</time>
      </trkpt>
      <trkpt lat="59.5929264" lon="17.5156599">
        <ele>27.5349</ele>
        <time>2011-02-01T19:59:55Z</time>
      </trkpt>
      <trkpt lat="59.5930886" lon="17.5151697">
        <ele>29.4575</ele>
        <time>2011-02-01T20:00:00Z</time>
      </trkpt>
      <trkpt lat="59.5931935" lon="17.5148768">
        <ele>30.4188</ele>
        <time>2011-02-01T20:00:03Z</time>
      </trkpt>
      <trkpt lat="59.5933274" lon="17.5146548">
        <ele>29.9381</ele>
        <time>2011-02-01T20:00:06Z</time>
      </trkpt>
      <trkpt lat="59.5934536" lon="17.5145401">
        <ele>28.4962</ele>
        <time>2011-02-01T20:00:09Z</time>
      </trkpt>
      <trkpt lat="59.5936207" lon="17.514466">
        <ele>28.0155</ele>
        <time>2011-02-01T20:00:13Z</time>
      </trkpt>
      <trkpt lat="59.593767" lon="17.5144893">
        <ele>28.0155</ele>
        <time>2011-02-01T20:00:17Z</time>
      </trkpt>
      <trkpt lat="59.5938848" lon="17.5146721">
        <ele>28.9769</ele>
        <time>2011-02-01T20:00:23Z</time>
      </trkpt>
      <trkpt lat="59.5940064" lon="17.5149527">
        <ele>28.4962</ele>
        <time>2011-02-01T20:00:29Z</time>
      </trkpt>
      <trkpt lat="59.5941215" lon="17.5151725">
        <ele>28.9769</ele>
        <time>2011-02-01T20:00:35Z</time>
      </trkpt>
      <trkpt lat="59.5942225" lon="17.5153022">
        <ele>28.4962</ele>
        <time>2011-02-01T20:00:40Z</time>
      </trkpt>
      <trkpt lat="59.594338" lon="17.5154445">
        <ele>27.5349</ele>
        <time>2011-02-01T20:00:45Z</time>
      </trkpt>
      <trkpt lat="59.5944559" lon="17.5155003">
        <ele>31.3801</ele>
        <time>2011-02-01T20:00:50Z</time>
      </trkpt>
      <trkpt lat="59.5945378" lon="17.5155458">
        <ele>31.3801</ele>
        <time>2011-02-01T20:00:54Z</time>
      </trkpt>
      <trkpt lat="59.5946909" lon="17.5155916">
        <ele>36.6675</ele>
        <time>2011-02-01T20:00:59Z</time>
      </trkpt>
      <trkpt lat="59.5948347" lon="17.5156556">
        <ele>40.0321</ele>
        <time>2011-02-01T20:01:03Z</time>
      </trkpt>
      <trkpt lat="59.5949089" lon="17.5156946">
        <ele>40.5128</ele>
        <time>2011-02-01T20:01:05Z</time>
      </trkpt>
      <trkpt lat="59.5950824" lon="17.5156938">
        <ele>41.9547</ele>
        <time>2011-02-01T20:01:11Z</time>
      </trkpt>
      <trkpt lat="59.5951127" lon="17.5156935">
        <ele>42.4354</ele>
        <time>2011-02-01T20:01:12Z</time>
      </trkpt>
      <trkpt lat="59.5951951" lon="17.515673">
        <ele>42.4354</ele>
        <time>2011-02-01T20:01:15Z</time>
      </trkpt>
      <trkpt lat="59.5953115" lon="17.5155238">
        <ele>38.1094</ele>
        <time>2011-02-01T20:01:21Z</time>
      </trkpt>
      <trkpt lat="59.5954577" lon="17.5152343">
        <ele>40.5128</ele>
        <time>2011-02-01T20:01:27Z</time>
      </trkpt>
      <trkpt lat="59.5955466" lon="17.5149529">
        <ele>39.5513</ele>
        <time>2011-02-01T20:01:32Z</time>
      </trkpt>
      <trkpt lat="59.5955906" lon="17.5146655">
        <ele>37.1481</ele>
        <time>2011-02-01T20:01:36Z</time>
      </trkpt>
      <trkpt lat="59.5956564" lon="17.5143876">
        <ele>37.6287</ele>
        <time>2011-02-01T20:01:40Z</time>
      </trkpt>
      <trkpt lat="59.5956874" lon="17.5141194">
        <ele>39.5513</ele>
        <time>2011-02-01T20:01:44Z</time>
      </trkpt>
      <trkpt lat="59.5957004" lon="17.5136429">
        <ele>40.5128</ele>
        <time>2011-02-01T20:01:49Z</time>
      </trkpt>
      <trkpt lat="59.5957206" lon="17.5132668">
        <ele>40.5128</ele>
        <time>2011-02-01T20:01:52Z</time>
      </trkpt>
      <trkpt lat="59.5958806" lon="17.5128423">
        <ele>38.1094</ele>
        <time>2011-02-01T20:01:56Z</time>
      </trkpt>
      <trkpt lat="59.5959949" lon="17.5127451">
        <ele>37.6287</ele>
        <time>2011-02-01T20:01:58Z</time>
      </trkpt>
      <trkpt lat="59.59635" lon="17.5126007">
        <ele>38.5901</ele>
        <time>2011-02-01T20:02:05Z</time>
      </trkpt>
      <trkpt lat="59.5965432" lon="17.5125607">
        <ele>36.1868</ele>
        <time>2011-02-01T20:02:11Z</time>
      </trkpt>
      <trkpt lat="59.5966623" lon="17.5125241">
        <ele>34.2642</ele>
        <time>2011-02-01T20:02:15Z</time>
      </trkpt>
      <trkpt lat="59.5967929" lon="17.5125051">
        <ele>32.3416</ele>
        <time>2011-02-01T20:02:19Z</time>
      </trkpt>
      <trkpt lat="59.5969824" lon="17.5124167">
        <ele>31.8607</ele>
        <time>2011-02-01T20:02:24Z</time>
      </trkpt>
      <trkpt lat="59.5971654" lon="17.5122447">
        <ele>34.7449</ele>
        <time>2011-02-01T20:02:29Z</time>
      </trkpt>
      <trkpt lat="59.5972455" lon="17.5122107">
        <ele>35.2255</ele>
        <time>2011-02-01T20:02:31Z</time>
      </trkpt>
      <trkpt lat="59.5974243" lon="17.5121416">
        <ele>34.7449</ele>
        <time>2011-02-01T20:02:35Z</time>
      </trkpt>
      <trkpt lat="59.5975946" lon="17.5120411">
        <ele>34.7449</ele>
        <time>2011-02-01T20:02:39Z</time>
      </trkpt>
      <trkpt lat="59.5977717" lon="17.5119226">
        <ele>33.3029</ele>
        <time>2011-02-01T20:02:43Z</time>
      </trkpt>
      <trkpt lat="59.5980148" lon="17.5116002">
        <ele>30.8995</ele>
        <time>2011-02-01T20:02:49Z</time>
      </trkpt>
      <trkpt lat="59.5980536" lon="17.5115444">
        <ele>30.8995</ele>
        <time>2011-02-01T20:02:50Z</time>
      </trkpt>
      <trkpt lat="59.5982721" lon="17.5112719">
        <ele>30.4188</ele>
        <time>2011-02-01T20:02:56Z</time>
      </trkpt>
      <trkpt lat="59.598311" lon="17.5112326">
        <ele>30.4188</ele>
        <time>2011-02-01T20:02:57Z</time>
      </trkpt>
      <trkpt lat="59.5983943" lon="17.5111642">
        <ele>30.8995</ele>
        <time>2011-02-01T20:02:59Z</time>
      </trkpt>
      <trkpt lat="59.5985784" lon="17.5110304">
        <ele>30.4188</ele>
        <time>2011-02-01T20:03:03Z</time>
      </trkpt>
      <trkpt lat="59.5987854" lon="17.5109185">
        <ele>31.3801</ele>
        <time>2011-02-01T20:03:08Z</time>
      </trkpt>
      <trkpt lat="59.5989929" lon="17.5108896">
        <ele>31.8607</ele>
        <time>2011-02-01T20:03:13Z</time>
      </trkpt>
      <trkpt lat="59.5991641" lon="17.5108373">
        <ele>29.4575</ele>
        <time>2011-02-01T20:03:17Z</time>
      </trkpt>
      <trkpt lat="59.599361" lon="17.5110164">
        <ele>26.5736</ele>
        <time>2011-02-01T20:03:21Z</time>
      </trkpt>
      <trkpt lat="59.5993948" lon="17.5110854">
        <ele>26.0929</ele>
        <time>2011-02-01T20:03:22Z</time>
      </trkpt>
      <trkpt lat="59.5995247" lon="17.5115557">
        <ele>24.651</ele>
        <time>2011-02-01T20:03:28Z</time>
      </trkpt>
      <trkpt lat="59.59952" lon="17.5117236">
        <ele>23.209</ele>
        <time>2011-02-01T20:03:30Z</time>
      </trkpt>
      <trkpt lat="59.5994917" lon="17.5119453">
        <ele>21.767</ele>
        <time>2011-02-01T20:03:33Z</time>
      </trkpt>
      <trkpt lat="59.5993932" lon="17.5122277">
        <ele>18.4023</ele>
        <time>2011-02-01T20:03:37Z</time>
      </trkpt>
      <trkpt lat="59.5992" lon="17.5124826">
        <ele>15.0377</ele>
        <time>2011-02-01T20:03:44Z</time>
      </trkpt>
      <trkpt lat="59.599169" lon="17.5125948">
        <ele>16.9604</ele>
        <time>2011-02-01T20:03:46Z</time>
      </trkpt>
      <trkpt lat="59.5991602" lon="17.5126944">
        <ele>18.8831</ele>
        <time>2011-02-01T20:03:48Z</time>
      </trkpt>
      <trkpt lat="59.5991741" lon="17.5130099">
        <ele>18.4023</ele>
        <time>2011-02-01T20:03:53Z</time>
      </trkpt>
      <trkpt lat="59.5991477" lon="17.5132683">
        <ele>16.4797</ele>
        <time>2011-02-01T20:03:57Z</time>
      </trkpt>
      <trkpt lat="59.5990855" lon="17.5134634">
        <ele>15.0377</ele>
        <time>2011-02-01T20:04:01Z</time>
      </trkpt>
      <trkpt lat="59.598998" lon="17.5136253">
        <ele>13.1151</ele>
        <time>2011-02-01T20:04:05Z</time>
      </trkpt>
      <trkpt lat="59.5988944" lon="17.5137593">
        <ele>12.6344</ele>
        <time>2011-02-01T20:04:09Z</time>
      </trkpt>
      <trkpt lat="59.5987922" lon="17.5138361">
        <ele>14.0764</ele>
        <time>2011-02-01T20:04:13Z</time>
      </trkpt>
      <trkpt lat="59.5986834" lon="17.5138893">
        <ele>15.0377</ele>
        <time>2011-02-01T20:04:18Z</time>
      </trkpt>
      <trkpt lat="59.5985814" lon="17.5138764">
        <ele>16.9604</ele>
        <time>2011-02-01T20:04:22Z</time>
      </trkpt>
      <trkpt lat="59.5984292" lon="17.5138744">
        <ele>17.9218</ele>
        <time>2011-02-01T20:04:27Z</time>
      </trkpt>
      <trkpt lat="59.5983273" lon="17.5139018">
        <ele>18.4023</ele>
        <time>2011-02-01T20:04:31Z</time>
      </trkpt>
      <trkpt lat="59.5981376" lon="17.5139319">
        <ele>21.2864</ele>
        <time>2011-02-01T20:04:38Z</time>
      </trkpt>
      <trkpt lat="59.5981133" lon="17.5139417">
        <ele>21.767</ele>
        <time>2011-02-01T20:04:39Z</time>
      </trkpt>
      <trkpt lat="59.5980151" lon="17.5139934">
        <ele>23.6896</ele>
        <time>2011-02-01T20:04:43Z</time>
      </trkpt>
      <trkpt lat="59.5978867" lon="17.5141573">
        <ele>26.0929</ele>
        <time>2011-02-01T20:04:48Z</time>
      </trkpt>
      <trkpt lat="59.597852" lon="17.5142311">
        <ele>26.5736</ele>
        <time>2011-02-01T20:04:50Z</time>
      </trkpt>
      <trkpt lat="59.5976756" lon="17.5144686">
        <ele>26.0929</ele>
        <time>2011-02-01T20:04:56Z</time>
      </trkpt>
      <trkpt lat="59.5974942" lon="17.5146395">
        <ele>25.6123</ele>
        <time>2011-02-01T20:05:02Z</time>
      </trkpt>
      <trkpt lat="59.5973548" lon="17.5147162">
        <ele>25.6123</ele>
        <time>2011-02-01T20:05:07Z</time>
      </trkpt>
      <trkpt lat="59.597203" lon="17.5147507">
        <ele>25.6123</ele>
        <time>2011-02-01T20:05:12Z</time>
      </trkpt>
      <trkpt lat="59.597059" lon="17.514808">
        <ele>26.0929</ele>
        <time>2011-02-01T20:05:17Z</time>
      </trkpt>
      <trkpt lat="59.5969923" lon="17.514827">
        <ele>25.6123</ele>
        <time>2011-02-01T20:05:19Z</time>
      </trkpt>
      <trkpt lat="59.5968737" lon="17.5149622">
        <ele>24.1703</ele>
        <time>2011-02-01T20:05:24Z</time>
      </trkpt>
      <trkpt lat="59.596766" lon="17.5150264">
        <ele>23.6896</ele>
        <time>2011-02-01T20:05:28Z</time>
      </trkpt>
      <trkpt lat="59.5966592" lon="17.5151714">
        <ele>24.651</ele>
        <time>2011-02-01T20:05:33Z</time>
      </trkpt>
      <trkpt lat="59.5965184" lon="17.5152964">
        <ele>25.6123</ele>
        <time>2011-02-01T20:05:39Z</time>
      </trkpt>
      <trkpt lat="59.5964017" lon="17.5154203">
        <ele>26.5736</ele>
        <time>2011-02-01T20:05:44Z</time>
      </trkpt>
      <trkpt lat="59.5962971" lon="17.5155121">
        <ele>27.5349</ele>
        <time>2011-02-01T20:05:48Z</time>
      </trkpt>
      <trkpt lat="59.5962146" lon="17.5156657">
        <ele>29.9381</ele>
        <time>2011-02-01T20:05:52Z</time>
      </trkpt>
      <trkpt lat="59.5961006" lon="17.5158077">
        <ele>30.8995</ele>
        <time>2011-02-01T20:05:56Z</time>
      </trkpt>
      <trkpt lat="59.595963" lon="17.5159224">
        <ele>34.2642</ele>
        <time>2011-02-01T20:06:00Z</time>
      </trkpt>
      <trkpt lat="59.5958603" lon="17.5160597">
        <ele>35.7061</ele>
        <time>2011-02-01T20:06:04Z</time>
      </trkpt>
      <trkpt lat="59.5957921" lon="17.5162168">
        <ele>38.5901</ele>
        <time>2011-02-01T20:06:08Z</time>
      </trkpt>
      <trkpt lat="59.5957625" lon="17.5164188">
        <ele>40.5128</ele>
        <time>2011-02-01T20:06:12Z</time>
      </trkpt>
      <trkpt lat="59.5957138" lon="17.516673">
        <ele>42.916</ele>
        <time>2011-02-01T20:06:16Z</time>
      </trkpt>
      <trkpt lat="59.5956837" lon="17.5168488">
        <ele>43.8773</ele>
        <time>2011-02-01T20:06:19Z</time>
      </trkpt>
      <trkpt lat="59.5955569" lon="17.5172208">
        <ele>42.916</ele>
        <time>2011-02-01T20:06:24Z</time>
      </trkpt>
      <trkpt lat="59.5955202" lon="17.5172912">
        <ele>42.4354</ele>
        <time>2011-02-01T20:06:25Z</time>
      </trkpt>
      <trkpt lat="59.595274" lon="17.5175381">
        <ele>37.6287</ele>
        <time>2011-02-01T20:06:29Z</time>
      </trkpt>
      <trkpt lat="59.5949399" lon="17.5176413">
        <ele>38.5901</ele>
        <time>2011-02-01T20:06:34Z</time>
      </trkpt>
      <trkpt lat="59.5946546" lon="17.5176947">
        <ele>37.6287</ele>
        <time>2011-02-01T20:06:39Z</time>
      </trkpt>
      <trkpt lat="59.5945535" lon="17.5177399">
        <ele>36.1868</ele>
        <time>2011-02-01T20:06:41Z</time>
      </trkpt>
      <trkpt lat="59.5943202" lon="17.5179273">
        <ele>34.7449</ele>
        <time>2011-02-01T20:06:46Z</time>
      </trkpt>
      <trkpt lat="59.594278" lon="17.5179599">
        <ele>33.7834</ele>
        <time>2011-02-01T20:06:47Z</time>
      </trkpt>
      <trkpt lat="59.5940117" lon="17.5181111">
        <ele>30.4188</ele>
        <time>2011-02-01T20:06:53Z</time>
      </trkpt>
      <trkpt lat="59.5938323" lon="17.5182002">
        <ele>28.9769</ele>
        <time>2011-02-01T20:06:57Z</time>
      </trkpt>
      <trkpt lat="59.5935869" lon="17.5182822">
        <ele>30.4188</ele>
        <time>2011-02-01T20:07:03Z</time>
      </trkpt>
      <trkpt lat="59.5935418" lon="17.5183164">
        <ele>29.4575</ele>
        <time>2011-02-01T20:07:04Z</time>
      </trkpt>
      <trkpt lat="59.5933346" lon="17.51857">
        <ele>28.0155</ele>
        <time>2011-02-01T20:07:09Z</time>
      </trkpt>
      <trkpt lat="59.5932124" lon="17.5187334">
        <ele>29.9381</ele>
        <time>2011-02-01T20:07:12Z</time>
      </trkpt>
      <trkpt lat="59.5930899" lon="17.5188473">
        <ele>30.8995</ele>
        <time>2011-02-01T20:07:15Z</time>
      </trkpt>
      <trkpt lat="59.5928902" lon="17.5186783">
        <ele>28.4962</ele>
        <time>2011-02-01T20:07:20Z</time>
      </trkpt>
      <trkpt lat="59.5928171" lon="17.5185189">
        <ele>27.0543</ele>
        <time>2011-02-01T20:07:22Z</time>
      </trkpt>
      <trkpt lat="59.5926323" lon="17.5181025">
        <ele>23.209</ele>
        <time>2011-02-01T20:07:27Z</time>
      </trkpt>
      <trkpt lat="59.59257" lon="17.517961">
        <ele>21.767</ele>
        <time>2011-02-01T20:07:29Z</time>
      </trkpt>
      <trkpt lat="59.5925388" lon="17.5176656">
        <ele>22.2476</ele>
        <time>2011-02-01T20:07:33Z</time>
      </trkpt>
      <trkpt lat="59.5925632" lon="17.5171439">
        <ele>26.0929</ele>
        <time>2011-02-01T20:07:40Z</time>
      </trkpt>
      <trkpt lat="59.5925769" lon="17.5168061">
        <ele>24.1703</ele>
        <time>2011-02-01T20:07:44Z</time>
      </trkpt>
      <trkpt lat="59.5926038" lon="17.5164567">
        <ele>22.7283</ele>
        <time>2011-02-01T20:07:47Z</time>
      </trkpt>
      <trkpt lat="59.5927784" lon="17.5159832">
        <ele>26.0929</ele>
        <time>2011-02-01T20:07:52Z</time>
      </trkpt>
      <trkpt lat="59.5930288" lon="17.5152554">
        <ele>28.9769</ele>
        <time>2011-02-01T20:07:59Z</time>
      </trkpt>
      <trkpt lat="59.5931804" lon="17.5148809">
        <ele>29.4575</ele>
        <time>2011-02-01T20:08:03Z</time>
      </trkpt>
      <trkpt lat="59.5932643" lon="17.5147466">
        <ele>28.9769</ele>
        <time>2011-02-01T20:08:05Z</time>
      </trkpt>
      <trkpt lat="59.5934432" lon="17.5145882">
        <ele>28.4962</ele>
        <time>2011-02-01T20:08:09Z</time>
      </trkpt>
      <trkpt lat="59.5935536" lon="17.5145254">
        <ele>28.4962</ele>
        <time>2011-02-01T20:08:12Z</time>
      </trkpt>
      <trkpt lat="59.5937402" lon="17.5144773">
        <ele>29.9381</ele>
        <time>2011-02-01T20:08:17Z</time>
      </trkpt>
      <trkpt lat="59.5937763" lon="17.5145031">
        <ele>30.4188</ele>
        <time>2011-02-01T20:08:18Z</time>
      </trkpt>
      <trkpt lat="59.5939203" lon="17.514756">
        <ele>32.3416</ele>
        <time>2011-02-01T20:08:24Z</time>
      </trkpt>
      <trkpt lat="59.5940086" lon="17.5149476">
        <ele>33.3029</ele>
        <time>2011-02-01T20:08:29Z</time>
      </trkpt>
      <trkpt lat="59.5941198" lon="17.5151146">
        <ele>32.8223</ele>
        <time>2011-02-01T20:08:34Z</time>
      </trkpt>
      <trkpt lat="59.594273" lon="17.515256">
        <ele>32.3416</ele>
        <time>2011-02-01T20:08:40Z</time>
      </trkpt>
      <trkpt lat="59.5943059" lon="17.5152726">
        <ele>32.8223</ele>
        <time>2011-02-01T20:08:41Z</time>
      </trkpt>
      <trkpt lat="59.5944157" lon="17.5153754">
        <ele>32.8223</ele>
        <time>2011-02-01T20:08:47Z</time>
      </trkpt>
      <trkpt lat="59.5945038" lon="17.515442">
        <ele>32.3416</ele>
        <time>2011-02-01T20:08:51Z</time>
      </trkpt>
      <trkpt lat="59.5945426" lon="17.5154542">
        <ele>33.7834</ele>
        <time>2011-02-01T20:08:52Z</time>
      </trkpt>
      <trkpt lat="59.5947589" lon="17.5155156">
        <ele>35.7061</ele>
        <time>2011-02-01T20:08:58Z</time>
      </trkpt>
      <trkpt lat="59.5948789" lon="17.515562">
        <ele>36.6675</ele>
        <time>2011-02-01T20:09:02Z</time>
      </trkpt>
      <trkpt lat="59.5950146" lon="17.5156207">
        <ele>39.0707</ele>
        <time>2011-02-01T20:09:07Z</time>
      </trkpt>
      <trkpt lat="59.5952013" lon="17.5156134">
        <ele>41.474</ele>
        <time>2011-02-01T20:09:13Z</time>
      </trkpt>
      <trkpt lat="59.59529" lon="17.5155569">
        <ele>42.4354</ele>
        <time>2011-02-01T20:09:17Z</time>
      </trkpt>
      <trkpt lat="59.5953161" lon="17.5155403">
        <ele>42.916</ele>
        <time>2011-02-01T20:09:19Z</time>
      </trkpt>
      <trkpt lat="59.5953809" lon="17.5154362">
        <ele>41.474</ele>
        <time>2011-02-01T20:09:24Z</time>
      </trkpt>
      <trkpt lat="59.5954417" lon="17.5153057">
        <ele>41.474</ele>
        <time>2011-02-01T20:09:28Z</time>
      </trkpt>
      <trkpt lat="59.5955573" lon="17.5150325">
        <ele>41.474</ele>
        <time>2011-02-01T20:09:33Z</time>
      </trkpt>
      <trkpt lat="59.5956113" lon="17.5147332">
        <ele>39.0707</ele>
        <time>2011-02-01T20:09:38Z</time>
      </trkpt>
      <trkpt lat="59.5956623" lon="17.5144518">
        <ele>37.6287</ele>
        <time>2011-02-01T20:09:42Z</time>
      </trkpt>
      <trkpt lat="59.5956704" lon="17.5140733">
        <ele>35.7061</ele>
        <time>2011-02-01T20:09:47Z</time>
      </trkpt>
      <trkpt lat="59.5956931" lon="17.5135417">
        <ele>34.7449</ele>
        <time>2011-02-01T20:09:52Z</time>
      </trkpt>
      <trkpt lat="59.5956962" lon="17.5134184">
        <ele>34.7449</ele>
        <time>2011-02-01T20:09:53Z</time>
      </trkpt>
      <trkpt lat="59.5958024" lon="17.5129211">
        <ele>32.8223</ele>
        <time>2011-02-01T20:09:57Z</time>
      </trkpt>
      <trkpt lat="59.5959711" lon="17.5127498">
        <ele>32.8223</ele>
        <time>2011-02-01T20:10:00Z</time>
      </trkpt>
      <trkpt lat="59.5962394" lon="17.5126152">
        <ele>33.7834</ele>
        <time>2011-02-01T20:10:05Z</time>
      </trkpt>
      <trkpt lat="59.5963665" lon="17.5126042">
        <ele>33.7834</ele>
        <time>2011-02-01T20:10:08Z</time>
      </trkpt>
      <trkpt lat="59.5965324" lon="17.512558">
        <ele>34.2642</ele>
        <time>2011-02-01T20:10:12Z</time>
      </trkpt>
      <trkpt lat="59.5966177" lon="17.5125405">
        <ele>33.7834</ele>
        <time>2011-02-01T20:10:14Z</time>
      </trkpt>
      <trkpt lat="59.5968259" lon="17.5125036">
        <ele>33.3029</ele>
        <time>2011-02-01T20:10:19Z</time>
      </trkpt>
      <trkpt lat="59.5970506" lon="17.5123727">
        <ele>33.3029</ele>
        <time>2011-02-01T20:10:25Z</time>
      </trkpt>
      <trkpt lat="59.5972006" lon="17.5123132">
        <ele>35.7061</ele>
        <time>2011-02-01T20:10:29Z</time>
      </trkpt>
      <trkpt lat="59.597358" lon="17.5122889">
        <ele>35.7061</ele>
        <time>2011-02-01T20:10:33Z</time>
      </trkpt>
      <trkpt lat="59.5975599" lon="17.5121613">
        <ele>33.3029</ele>
        <time>2011-02-01T20:10:38Z</time>
      </trkpt>
      <trkpt lat="59.5977676" lon="17.5119836">
        <ele>32.3416</ele>
        <time>2011-02-01T20:10:43Z</time>
      </trkpt>
      <trkpt lat="59.5979033" lon="17.5118852">
        <ele>30.4188</ele>
        <time>2011-02-01T20:10:46Z</time>
      </trkpt>
      <trkpt lat="59.5980149" lon="17.5117304">
        <ele>29.9381</ele>
        <time>2011-02-01T20:10:49Z</time>
      </trkpt>
      <trkpt lat="59.5981386" lon="17.5114998">
        <ele>29.4575</ele>
        <time>2011-02-01T20:10:53Z</time>
      </trkpt>
      <trkpt lat="59.5983433" lon="17.5112258">
        <ele>28.4962</ele>
        <time>2011-02-01T20:10:58Z</time>
      </trkpt>
      <trkpt lat="59.5985753" lon="17.5110528">
        <ele>29.4575</ele>
        <time>2011-02-01T20:11:03Z</time>
      </trkpt>
      <trkpt lat="59.5987339" lon="17.510975">
        <ele>29.9381</ele>
        <time>2011-02-01T20:11:07Z</time>
      </trkpt>
      <trkpt lat="59.5988618" lon="17.5109415">
        <ele>28.9769</ele>
        <time>2011-02-01T20:11:10Z</time>
      </trkpt>
      <trkpt lat="59.5990307" lon="17.5108822">
        <ele>27.5349</ele>
        <time>2011-02-01T20:11:14Z</time>
      </trkpt>
      <trkpt lat="59.5991869" lon="17.5108657">
        <ele>25.6123</ele>
        <time>2011-02-01T20:11:18Z</time>
      </trkpt>
      <trkpt lat="59.5993083" lon="17.5110066">
        <ele>24.651</ele>
        <time>2011-02-01T20:11:21Z</time>
      </trkpt>
      <trkpt lat="59.5993983" lon="17.5112129">
        <ele>24.1703</ele>
        <time>2011-02-01T20:11:24Z</time>
      </trkpt>
      <trkpt lat="59.5994596" lon="17.5114442">
        <ele>24.651</ele>
        <time>2011-02-01T20:11:27Z</time>
      </trkpt>
      <trkpt lat="59.5995052" lon="17.5116976">
        <ele>24.651</ele>
        <time>2011-02-01T20:11:31Z</time>
      </trkpt>
      <trkpt lat="59.5994709" lon="17.5120059">
        <ele>25.1317</ele>
        <time>2011-02-01T20:11:36Z</time>
      </trkpt>
      <trkpt lat="59.5993773" lon="17.5122142">
        <ele>23.6896</ele>
        <time>2011-02-01T20:11:40Z</time>
      </trkpt>
      <trkpt lat="59.5992503" lon="17.5123347">
        <ele>22.2476</ele>
        <time>2011-02-01T20:11:44Z</time>
      </trkpt>
      <trkpt lat="59.5991455" lon="17.5124861">
        <ele>22.7283</ele>
        <time>2011-02-01T20:11:48Z</time>
      </trkpt>
      <trkpt lat="59.5991209" lon="17.5126354">
        <ele>23.6896</ele>
        <time>2011-02-01T20:11:51Z</time>
      </trkpt>
      <trkpt lat="59.5991594" lon="17.5128989">
        <ele>21.767</ele>
        <time>2011-02-01T20:11:56Z</time>
      </trkpt>
      <trkpt lat="59.5991622" lon="17.5131202">
        <ele>20.8057</ele>
        <time>2011-02-01T20:11:59Z</time>
      </trkpt>
      <trkpt lat="59.5990409" lon="17.513492">
        <ele>17.4412</ele>
        <time>2011-02-01T20:12:06Z</time>
      </trkpt>
      <trkpt lat="59.598957" lon="17.5136423">
        <ele>14.557</ele>
        <time>2011-02-01T20:12:10Z</time>
      </trkpt>
      <trkpt lat="59.5988711" lon="17.5137444">
        <ele>12.6344</ele>
        <time>2011-02-01T20:12:14Z</time>
      </trkpt>
      <trkpt lat="59.5987733" lon="17.513823">
        <ele>15.999</ele>
        <time>2011-02-01T20:12:19Z</time>
      </trkpt>
      <trkpt lat="59.5986695" lon="17.5138893">
        <ele>15.999</ele>
        <time>2011-02-01T20:12:24Z</time>
      </trkpt>
      <trkpt lat="59.5986106" lon="17.5139039">
        <ele>16.4797</ele>
        <time>2011-02-01T20:12:26Z</time>
      </trkpt>
      <trkpt lat="59.598457" lon="17.5138913">
        <ele>16.9604</ele>
        <time>2011-02-01T20:12:31Z</time>
      </trkpt>
      <trkpt lat="59.5983736" lon="17.5138956">
        <ele>16.9604</ele>
        <time>2011-02-01T20:12:34Z</time>
      </trkpt>
      <trkpt lat="59.5982084" lon="17.5139578">
        <ele>17.4412</ele>
        <time>2011-02-01T20:12:41Z</time>
      </trkpt>
      <trkpt lat="59.5980903" lon="17.5139698">
        <ele>17.4412</ele>
        <time>2011-02-01T20:12:47Z</time>
      </trkpt>
      <trkpt lat="59.5979471" lon="17.5140625">
        <ele>17.4412</ele>
        <time>2011-02-01T20:12:52Z</time>
      </trkpt>
      <trkpt lat="59.5978178" lon="17.5142439">
        <ele>17.9218</ele>
        <time>2011-02-01T20:12:57Z</time>
      </trkpt>
      <trkpt lat="59.597707" lon="17.5143905">
        <ele>18.4023</ele>
        <time>2011-02-01T20:13:01Z</time>
      </trkpt>
      <trkpt lat="59.597588" lon="17.5144867">
        <ele>17.9218</ele>
        <time>2011-02-01T20:13:05Z</time>
      </trkpt>
      <trkpt lat="59.5975042" lon="17.5145604">
        <ele>17.4412</ele>
        <time>2011-02-01T20:13:08Z</time>
      </trkpt>
      <trkpt lat="59.5973881" lon="17.5145904">
        <ele>19.3638</ele>
        <time>2011-02-01T20:13:12Z</time>
      </trkpt>
      <trkpt lat="59.5972103" lon="17.5146973">
        <ele>18.8831</ele>
        <time>2011-02-01T20:13:18Z</time>
      </trkpt>
      <trkpt lat="59.597096" lon="17.5147672">
        <ele>18.8831</ele>
        <time>2011-02-01T20:13:22Z</time>
      </trkpt>
      <trkpt lat="59.596997" lon="17.5148193">
        <ele>20.325</ele>
        <time>2011-02-01T20:13:26Z</time>
      </trkpt>
      <trkpt lat="59.5969043" lon="17.5149128">
        <ele>21.2864</ele>
        <time>2011-02-01T20:13:30Z</time>
      </trkpt>
      <trkpt lat="59.5967877" lon="17.5150198">
        <ele>23.209</ele>
        <time>2011-02-01T20:13:35Z</time>
      </trkpt>
      <trkpt lat="59.5966867" lon="17.5151285">
        <ele>25.6123</ele>
        <time>2011-02-01T20:13:40Z</time>
      </trkpt>
      <trkpt lat="59.5965541" lon="17.5152563">
        <ele>28.4962</ele>
        <time>2011-02-01T20:13:46Z</time>
      </trkpt>
      <trkpt lat="59.5964594" lon="17.5153348">
        <ele>29.9381</ele>
        <time>2011-02-01T20:13:50Z</time>
      </trkpt>
      <trkpt lat="59.5963741" lon="17.5154223">
        <ele>31.8607</ele>
        <time>2011-02-01T20:13:54Z</time>
      </trkpt>
      <trkpt lat="59.59624" lon="17.5155927">
        <ele>34.7449</ele>
        <time>2011-02-01T20:13:59Z</time>
      </trkpt>
      <trkpt lat="59.5961055" lon="17.51571">
        <ele>36.6675</ele>
        <time>2011-02-01T20:14:04Z</time>
      </trkpt>
      <trkpt lat="59.5960029" lon="17.5158053">
        <ele>38.1094</ele>
        <time>2011-02-01T20:14:07Z</time>
      </trkpt>
      <trkpt lat="59.5958749" lon="17.5159905">
        <ele>38.5901</ele>
        <time>2011-02-01T20:14:11Z</time>
      </trkpt>
      <trkpt lat="59.5958328" lon="17.516054">
        <ele>38.1094</ele>
        <time>2011-02-01T20:14:13Z</time>
      </trkpt>
      <trkpt lat="59.595772" lon="17.5162543">
        <ele>39.0707</ele>
        <time>2011-02-01T20:14:18Z</time>
      </trkpt>
      <trkpt lat="59.5957361" lon="17.5165951">
        <ele>40.0321</ele>
        <time>2011-02-01T20:14:24Z</time>
      </trkpt>
      <trkpt lat="59.5956891" lon="17.5168436">
        <ele>41.9547</ele>
        <time>2011-02-01T20:14:28Z</time>
      </trkpt>
      <trkpt lat="59.5955888" lon="17.5171107">
        <ele>40.5128</ele>
        <time>2011-02-01T20:14:32Z</time>
      </trkpt>
      <trkpt lat="59.5954656" lon="17.5173475">
        <ele>38.5901</ele>
        <time>2011-02-01T20:14:35Z</time>
      </trkpt>
      <trkpt lat="59.5951418" lon="17.5175445">
        <ele>36.6675</ele>
        <time>2011-02-01T20:14:40Z</time>
      </trkpt>
      <trkpt lat="59.5950777" lon="17.517563">
        <ele>36.6675</ele>
        <time>2011-02-01T20:14:41Z</time>
      </trkpt>
      <trkpt lat="59.59476" lon="17.5176973">
        <ele>33.7834</ele>
        <time>2011-02-01T20:14:46Z</time>
      </trkpt>
      <trkpt lat="59.5945079" lon="17.5177875">
        <ele>32.8223</ele>
        <time>2011-02-01T20:14:51Z</time>
      </trkpt>
      <trkpt lat="59.5943157" lon="17.5178546">
        <ele>31.8607</ele>
        <time>2011-02-01T20:14:55Z</time>
      </trkpt>
      <trkpt lat="59.5941286" lon="17.5180231">
        <ele>29.4575</ele>
        <time>2011-02-01T20:15:00Z</time>
      </trkpt>
      <trkpt lat="59.5939888" lon="17.518139">
        <ele>28.9769</ele>
        <time>2011-02-01T20:15:05Z</time>
      </trkpt>
      <trkpt lat="59.5939557" lon="17.5181551">
        <ele>29.9381</ele>
        <time>2011-02-01T20:15:06Z</time>
      </trkpt>
      <trkpt lat="59.5938126" lon="17.5181921">
        <ele>30.8995</ele>
        <time>2011-02-01T20:15:10Z</time>
      </trkpt>
      <trkpt lat="59.5936256" lon="17.5182644">
        <ele>29.9381</ele>
        <time>2011-02-01T20:15:15Z</time>
      </trkpt>
      <trkpt lat="59.593447" lon="17.5184288">
        <ele>28.9769</ele>
        <time>2011-02-01T20:15:19Z</time>
      </trkpt>
      <trkpt lat="59.593308" lon="17.5186162">
        <ele>29.9381</ele>
        <time>2011-02-01T20:15:23Z</time>
      </trkpt>
      <trkpt lat="59.5931396" lon="17.5187378">
        <ele>28.9769</ele>
        <time>2011-02-01T20:15:27Z</time>
      </trkpt>
      <trkpt lat="59.5929368" lon="17.5187531">
        <ele>28.4962</ele>
        <time>2011-02-01T20:15:32Z</time>
      </trkpt>
      <trkpt lat="59.592826" lon="17.5186442">
        <ele>27.0543</ele>
        <time>2011-02-01T20:15:35Z</time>
      </trkpt>
      <trkpt lat="59.5926393" lon="17.5182625">
        <ele>27.0543</ele>
        <time>2011-02-01T20:15:41Z</time>
      </trkpt>
      <trkpt lat="59.5925158" lon="17.5179444">
        <ele>27.5349</ele>
        <time>2011-02-01T20:15:46Z</time>
      </trkpt>
      <trkpt lat="59.5925005" lon="17.5177957">
        <ele>27.5349</ele>
        <time>2011-02-01T20:15:49Z</time>
      </trkpt>
      <trkpt lat="59.5925094" lon="17.5176853">
        <ele>27.5349</ele>
        <time>2011-02-01T20:15:51Z</time>
      </trkpt>
    </trkseg>
  </trk>
</gpx>